Date,TemperatureHighF,TemperatureAvgF,TemperatureLowF,DewpointHighF,DewpointAvgF,DewpointLowF,HumidityHigh,HumidityAvg,HumidityLow,PressureMaxIn,PressureMinIn,WindSpeedMaxMPH,WindSpeedAvgMPH,GustSpeedMaxMPH,PrecipitationSumIn
2013-1-12,66,65,64,64,61,58,100,88,75,29.84,29.76,10,8,16,0.00
2013-1-13,66,48,32,60,44,19,100,87,55,30.14,29.73,16,5,24,1.54
2013-1-14,34,30,25,30,23,19,92,78,68,30.35,30.11,10,4,10,0.00
2013-1-15,33,28,23,30,23,5,95,81,44,30.23,29.93,12,4,12,0.04
2013-1-16,32,31,30,32,30,15,100,96,52,30.05,29.88,7,3,7,0.00
2013-1-17,49,35,29,38,29,21,100,80,65,30.32,29.99,13,3,13,0.00
2013-1-18,49,34,21,37,26,17,88,73,65,30.47,30.23,10,4,10,0.00
2013-1-19,57,48,35,40,31,0,68,51,22,30.20,29.93,23,12,23,0.00
2013-1-20,49,39,27,32,22,1,55,52,21,30.17,30.02,15,4,15,0.00
2013-1-21,32,25,18,25,5,-42,79,43,12,30.20,30.05,28,10,28,0.00
2013-1-22,26,19,12,8,2,-18,50,46,24,30.32,30.20,12,6,12,0.00
2013-1-23,41,31,11,23,13,-19,51,47,24,30.26,29.99,14,5,14,0.00
2013-1-24,34,25,20,16,5,-13,50,43,22,30.44,30.23,13,4,13,0.00
2013-1-25,30,26,22,24,17,-11,87,72,22,30.11,29.93,8,4,8,0.00
2013-1-26,44,32,21,31,22,7,100,69,54,30.26,30.11,7,2,7,0.04
2013-1-27,44,34,23,37,26,15,86,75,62,30.26,30.05,7,3,7,0.08
2013-1-28,55,52,46,49,44,10,94,75,22,30.08,29.96,17,8,17,0.13
2013-1-29,65,62,54,55,51,29,100,70,37,29.96,29.55,25,11,25,0.00
2013-1-30,69,52,33,60,46,22,100,78,62,29.64,29.31,33,13,33,1.17
2013-1-31,38,31,20,28,19,-6,88,63,23,30.02,29.76,26,13,26,0.00
2013-2-1,26,16,7,14,6,-2,66,65,63,30.38,30.02,23,6,23,0.00
2013-2-2,39,34,18,28,23,8,100,65,63,30.23,29.91,17,6,17,0.00
2013-2-3,34,30,22,28,22,12,93,72,64,30.08,29.88,18,5,18,0.00
2013-2-4,53,42,19,41,31,-3,94,67,31,30.02,29.76,22,10,22,0.13
2013-2-5,54,46,36,40,33,15,81,62,40,29.96,29.79,17,7,17,0.13
2013-2-6,55,43,28,42,30,3,88,62,30,30.14,30.02,8,3,8,0.00
2013-2-7,70,56,36,54,40,2,98,57,24,30.02,29.79,14,5,14,0.00
2013-2-8,43,36,33,35,25,11,93,65,33,30.23,29.82,15,6,15,0.12
2013-2-9,54,42,26,40,28,-6,73,60,23,30.26,30.08,8,4,8,0.00
2013-2-10,59,50,37,49,39,4,93,67,21,30.08,29.76,28,10,28,0.16
2013-2-11,52,47,37,47,32,7,100,58,19,30.02,29.76,26,11,26,0.00
2013-2-12,56,44,28,42,30,-4,74,59,23,30.08,29.79,9,2,9,0.00
2013-2-13,44,38,32,32,27,1,81,66,22,29.85,29.67,12,4,12,0.05
2013-2-14,58,48,34,44,36,18,89,64,52,29.93,29.79,22,8,22,0.00
2013-2-15,47,38,27,35,25,2,65,61,21,30.08,29.93,17,6,17,0.00
2013-2-16,38,29,18,26,13,-13,73,53,22,30.08,29.96,18,6,18,0.00
2013-2-17,46,33,16,31,20,-15,92,59,23,30.14,30.05,12,4,12,0.00
2013-2-18,64,52,30,44,33,-6,64,49,20,30.02,29.70,34,15,34,0.04
2013-2-19,42,34,26,24,18,-1,63,51,23,30.08,29.76,29,12,29,0.17
2013-2-20,35,28,17,20,11,-15,55,50,23,30.23,30.11,13,4,13,0.00
2013-2-21,74,34,19,42,17,-13,84,51,22,30.32,29.23,18,5,26,0.08
2013-2-22,52,45,35,44,31,23,100,61,48,29.91,29.76,22,8,22,0.29
2013-2-23,52,40,29,36,25,-2,64,57,25,29.93,29.82,11,4,11,0.00
2013-2-24,56,42,22,39,28,-7,80,58,24,30.05,29.96,8,3,8,0.00
2013-2-25,60,40,29,39,24,-7,78,54,21,30.26,29.64,15,5,15,0.00
2013-2-26,66,44,24,51,38,-2,100,84,21,30.32,29.28,34,8,34,0.41
2013-2-27,66,36,33,47,31,3,100,86,20,30.32,29.58,23,10,23,0.05
2013-2-28,72,34,32,58,30,-1,99,87,22,30.29,29.73,17,8,17,0.00
2013-3-1,41,35,32,35,29,20,99,79,57,29.93,29.88,8,3,8,0.08
2013-3-2,34,31,28,32,24,20,100,75,70,30.02,29.91,12,4,12,0.00
2013-3-3,43,33,27,32,25,6,94,72,66,30.02,29.93,13,5,13,0.00
2013-3-4,48,42,28,36,27,18,72,57,42,30.02,29.82,10,4,10,0.00
2013-3-5,49,39,29,48,34,20,99,81,48,29.82,29.52,27,9,27,0.41
2013-3-6,34,31,30,27,24,5,86,75,33,30.20,29.82,26,6,26,0.00
2013-3-7,38,34,30,28,23,0,85,65,23,30.29,30.20,7,2,7,0.05
2013-3-8,56,40,25,42,29,19,82,66,58,30.35,30.23,8,3,8,0.00
2013-3-9,66,49,34,49,36,16,65,61,16,30.23,29.93,10,4,10,0.00
2013-3-10,72,62,50,48,39,9,61,44,19,29.93,29.73,22,9,22,0.04
2013-3-11,54,46,37,52,36,22,100,71,46,29.85,29.64,25,11,25,1.17
2013-3-12,64,42,34,60,20,-1,100,45,19,30.08,29.88,20,8,20,0.00
2013-3-13,37,32,27,21,14,-7,52,48,20,30.26,29.99,20,8,20,0.00
2013-3-14,50,34,18,30,15,-11,69,48,19,30.29,30.11,14,4,14,0.00
2013-3-15,69,55,32,43,31,4,71,43,16,29.99,29.73,13,4,13,0.00
2013-3-16,72,61,47,45,36,12,46,40,15,29.91,29.64,27,10,27,0.00
2013-3-17,41,38,36,37,34,22,98,87,46,29.96,29.82,10,4,10,0.59
2013-3-18,52,47,36,52,41,22,100,81,52,29.85,29.58,18,8,18,1.17
2013-3-19,51,41,31,30,22,-3,52,47,23,30.08,29.88,23,8,23,0.00
2013-3-20,46,34,24,27,16,-9,100,48,21,30.05,29.93,28,9,28,0.00
2013-3-21,41,29,17,23,11,-14,52,48,22,29.99,29.88,14,4,14,0.00
2013-3-22,42,38,29,24,21,12,51,49,48,29.96,29.88,6,2,6,0.00
2013-3-23,61,49,36,38,27,1,100,43,22,29.93,29.70,9,4,9,0.00
2013-3-24,46,39,35,40,31,19,100,76,46,29.73,29.31,23,6,23,0.59
2013-3-25,35,33,31,32,28,4,100,84,30,29.93,29.52,24,11,24,0.08
2013-3-26,43,35,32,37,30,2,99,81,25,30.20,29.91,16,6,16,0.00
2013-3-27,50,39,24,39,26,-6,82,62,23,30.29,30.17,15,4,15,0.00
2013-3-28,58,44,26,47,34,-8,74,68,21,30.26,30.17,13,3,13,0.00
2013-3-29,51,44,36,42,35,1,93,71,21,30.23,30.11,10,3,10,0.00
2013-3-30,65,51,31,53,39,12,100,65,21,30.11,29.73,14,3,14,0.13
2013-3-31,64,53,47,53,47,38,100,82,67,29.85,29.73,14,6,14,0.13
2013-4-1,55,47,38,45,36,4,73,68,19,30.08,29.79,18,6,18,0.00
2013-4-2,56,44,29,39,24,-7,74,47,20,30.20,30.11,14,4,14,0.00
2013-4-3,57,46,30,27,19,-7,39,33,20,30.26,30.14,13,5,13,0.00
2013-4-4,53,47,38,25,20,1,38,33,21,30.08,29.91,8,2,8,0.00
2013-4-5,70,57,32,52,39,-2,71,52,22,30.02,29.91,13,4,13,0.00
2013-4-6,76,62,43,50,42,4,71,48,20,30.05,29.88,16,6,16,0.00
2013-4-7,74,65,57,50,42,13,52,44,17,29.93,29.85,21,9,21,0.00
2013-4-8,75,67,56,50,44,12,52,44,17,29.93,29.85,25,9,25,0.00
2013-4-9,83,69,59,59,49,27,62,50,14,30.05,29.91,26,8,26,0.00
2013-4-10,86,75,60,60,50,19,72,43,15,29.96,29.73,26,9,26,0.00
2013-4-11,71,63,53,64,55,19,100,79,15,29.79,29.52,15,5,15,1.05
2013-4-12,55,47,36,47,37,30,100,69,55,29.91,29.58,23,9,23,0.16
2013-4-13,64,52,33,44,35,9,100,54,32,30.02,29.93,19,6,19,0.00
2013-4-14,78,65,47,56,45,32,57,48,41,29.96,29.76,23,6,23,0.00
2013-4-15,78,68,56,56,46,16,72,47,20,29.96,29.85,13,5,13,0.00
2013-4-16,84,73,62,59,53,29,70,50,24,30.11,29.96,18,7,18,0.00
2013-4-17,89,71,62,68,54,41,97,55,41,30.11,29.93,10,3,10,0.00
2013-4-18,85,76,63,62,53,34,90,46,34,29.91,29.64,28,13,28,0.00
2013-4-19,48,42,38,37,29,12,86,59,31,30.02,29.67,23,10,23,1.17
2013-4-20,61,48,31,48,30,2,100,54,17,30.35,30.05,15,4,15,0.00
2013-4-21,68,53,37,46,34,1,76,49,21,30.38,30.23,9,4,9,0.00
2013-4-22,78,64,41,50,36,4,100,35,19,30.23,30.05,13,4,13,0.00
2013-4-23,73,64,48,56,46,8,65,53,19,30.08,29.88,18,8,18,0.00
2013-4-24,65,51,37,58,43,30,100,75,57,30.20,29.79,18,7,18,0.80
2013-4-25,64,51,31,51,38,13,100,61,44,30.32,30.17,17,5,17,0.00
2013-4-26,68,57,41,46,34,4,100,43,20,30.35,30.23,9,3,9,0.00
2013-4-27,58,55,51,57,46,10,100,76,19,30.20,29.91,13,3,13,0.33
2013-4-28,67,59,54,61,54,48,100,83,66,29.91,29.82,18,6,18,0.34
2013-4-29,72,62,53,58,51,45,100,69,56,29.96,29.88,9,3,9,0.00
2013-4-30,87,71,50,68,55,29,98,58,43,30.02,29.88,10,3,10,0.00
2013-5-1,90,72,56,71,57,29,80,60,13,30.14,29.99,10,2,10,0.00
2013-5-2,82,71,60,64,53,15,60,55,16,30.14,30.05,9,3,9,0.00
2013-5-3,82,71,61,65,55,25,77,59,24,30.02,29.85,13,3,13,0.00
2013-5-4,60,54,52,53,49,14,100,88,17,30.03,29.85,6,2,6,1.63
2013-5-5,58,53,50,56,51,40,100,92,63,29.89,29.83,9,4,9,0.37
2013-5-6,74,61,51,60,53,47,100,75,56,29.92,29.80,8,3,8,0.08
2013-5-7,80,66,53,68,57,40,100,74,60,30.00,29.92,7,2,7,0.04
2013-5-8,85,71,57,70,61,39,100,70,62,30.06,29.98,10,3,10,0.00
2013-5-9,82,71,55,69,59,35,97,65,45,30.09,29.98,14,4,14,0.09
2013-5-10,65,63,62,65,61,27,100,95,26,29.95,29.86,17,5,17,0.83
2013-5-11,66,59,52,65,54,35,100,83,46,30.06,29.92,12,4,12,0.25
2013-5-12,63,52,40,52,40,7,100,70,40,30.18,29.95,13,4,13,0.00
2013-5-13,69,58,36,49,40,8,66,51,24,30.24,30.12,13,4,13,0.00
2013-5-14,84,71,43,61,49,6,57,47,19,30.12,29.92,18,7,18,0.00
2013-5-15,87,79,64,63,54,19,49,43,13,30.03,29.92,16,8,16,0.04
2013-5-16,85,73,62,62,52,15,76,50,16,30.03,29.92,15,4,15,0.00
2013-5-17,76,68,62,67,57,31,97,68,23,30.09,30.00,9,2,9,0.05
2013-5-18,85,73,64,69,56,38,80,57,28,30.06,29.98,5,1,5,0.00
2013-5-19,93,78,62,71,52,36,91,49,17,30.03,29.92,11,3,11,0.00
2013-5-20,88,77,62,76,66,25,102,68,16,30.06,29.95,13,5,13,0.00
2013-5-21,85,74,66,73,66,40,98,75,32,29.98,29.86,20,5,20,0.04
2013-5-22,80,71,62,68,62,33,96,75,26,29.92,29.80,16,5,16,0.12
2013-5-23,74,65,59,64,57,53,97,77,70,30.06,29.89,14,4,14,0.12
2013-5-24,74,62,49,62,52,19,88,71,27,30.33,30.18,12,3,12,0.00
2013-5-25,81,66,44,70,56,9,90,70,22,30.36,30.15,7,2,7,0.00
2013-5-26,84,70,55,72,58,11,77,67,17,30.27,30.15,6,2,6,0.00
2013-5-27,86,76,58,74,64,16,80,68,19,30.15,29.98,20,6,20,0.00
2013-5-28,87,80,67,75,66,21,71,65,16,30.09,29.98,24,9,24,0.00
2013-5-29,90,81,73,77,70,63,71,69,67,30.09,30.00,13,4,13,0.00
2013-5-30,90,80,66,77,67,28,78,67,23,30.15,30.00,15,6,15,0.00
2013-5-31,80,74,68,72,66,30,91,75,23,30.06,29.95,16,6,16,0.17
2013-6-1,79,70,63,69,65,59,98,84,70,30.00,29.80,11,4,11,0.04
2013-6-2,82,72,63,70,62,39,90,73,36,29.98,29.89,10,3,10,0.21
2013-6-3,80,70,60,70,59,26,79,69,24,30.06,29.95,8,3,8,0.00
2013-6-4,86,73,53,74,62,27,81,68,27,30.12,30.00,7,2,7,0.00
2013-6-5,91,78,61,79,66,24,81,68,24,30.03,29.86,9,2,9,0.00
2013-6-6,78,72,68,69,64,47,97,76,47,29.86,29.80,8,2,8,0.37
2013-6-7,87,73,62,100,64,48,97,72,59,29.89,29.77,6,2,6,0.13
2013-6-8,86,74,61,74,63,40,93,69,46,30.03,29.89,10,3,10,0.17
2013-6-9,84,73,61,72,65,36,98,76,39,30.06,29.86,8,2,8,0.08
2013-6-10,77,69,64,68,64,26,97,85,16,30.03,29.80,14,4,14,1.00
2013-6-11,89,79,59,77,68,39,89,71,33,30.03,29.92,9,4,9,0.00
2013-6-12,93,85,72,80,73,44,95,70,35,30.00,29.83,18,6,18,0.00
2013-6-13,83,78,68,71,66,34,75,68,20,29.95,29.74,17,6,17,0.00
2013-6-14,89,75,56,76,63,15,79,67,19,30.06,29.95,10,2,10,0.00
2013-6-15,90,78,60,78,67,28,90,70,28,30.12,29.98,9,3,9,0.00
2013-6-16,86,76,68,74,66,32,89,74,26,30.09,29.98,11,3,11,0.00
2013-6-17,93,76,66,80,68,47,97,79,41,30.00,29.89,13,3,13,0.46
2013-6-18,89,77,64,77,68,57,95,73,68,29.98,29.86,13,3,13,0.16
2013-6-19,90,78,61,77,67,38,85,69,34,30.09,29.98,8,2,8,0.00
2013-6-20,94,81,65,81,69,28,80,68,24,30.18,30.09,6,1,6,0.00
2013-6-21,94,81,65,81,68,40,97,66,40,30.21,30.09,9,2,9,0.00
2013-6-22,94,82,66,80,71,40,91,69,37,30.18,30.06,10,3,10,0.00
2013-6-23,92,81,69,79,71,61,97,73,67,30.15,30.03,12,4,12,0.00
2013-6-24,83,74,68,72,67,41,97,80,31,30.18,30.06,8,2,8,0.08
2013-6-25,93,82,67,80,72,60,96,74,67,30.09,29.92,10,4,10,0.00
2013-6-26,89,78,66,77,70,31,97,76,22,30.00,29.74,34,6,34,1.26
2013-6-27,92,79,68,79,71,29,97,78,14,29.86,29.80,13,3,13,0.00
2013-6-28,92,81,71,78,69,39,83,69,30,29.80,29.65,13,3,13,0.00
2013-6-29,85,74,62,74,64,28,93,72,25,29.71,29.62,13,4,13,0.04
2013-6-30,87,72,62,75,63,47,97,75,54,29.83,29.68,8,3,8,0.00
2013-7-1,85,70,63,73,61,32,97,74,29,29.92,29.80,11,2,11,1.63
2013-7-2,85,74,61,73,65,52,97,72,68,30.06,29.89,13,4,13,0.00
2013-7-3,87,78,63,75,67,42,88,70,34,30.15,30.06,7,2,7,0.00
2013-7-4,70,68,64,68,59,45,97,77,44,30.15,30.06,5,1,5,0.93
2013-7-5,84,73,66,74,68,61,97,85,71,30.12,30.06,7,2,7,0.16
2013-7-6,76,69,64,68,64,58,97,85,73,30.15,30.06,6,2,6,1.50
2013-7-7,90,78,66,78,68,60,97,74,67,30.15,30.06,8,3,8,0.04
2013-7-8,93,83,66,80,72,48,96,71,48,30.18,30.06,9,3,9,0.00
2013-7-9,94,82,70,81,69,36,97,65,22,30.15,30.00,10,3,10,0.00
2013-7-10,92,77,69,80,71,46,97,84,36,30.03,29.89,20,3,20,1.13
2013-7-11,88,77,68,78,69,59,97,78,68,30.00,29.92,10,3,10,0.00
2013-7-12,85,74,61,73,63,27,83,69,25,30.09,30.00,13,3,13,0.00
2013-7-13,89,75,60,76,64,28,82,70,23,30.09,30.00,9,2,9,0.00
2013-7-14,97,82,66,84,72,41,99,74,38,30.21,30.09,6,2,6,0.00
2013-7-15,96,84,71,83,72,35,85,69,26,30.33,30.21,10,2,10,0.00
2013-7-16,98,86,73,84,76,67,95,72,66,30.36,30.24,7,2,7,0.00
2013-7-17,101,89,73,87,75,37,75,64,21,30.33,30.18,6,2,6,0.00
2013-7-18,97,86,72,83,75,46,94,70,38,30.21,30.03,10,2,10,0.34
2013-7-19,92,83,69,80,70,31,96,68,12,30.09,29.92,9,4,9,0.00
2013-7-20,92,82,71,79,72,48,98,72,44,29.98,29.86,12,5,12,0.00
2013-7-21,93,81,69,80,70,46,97,72,43,30.00,29.89,9,3,9,0.00
2013-7-22,81,75,70,73,67,52,97,77,53,29.89,29.80,13,3,13,0.44
2013-7-23,91,82,72,79,72,47,90,75,37,29.89,29.77,10,4,10,0.00
2013-7-24,85,74,65,73,63,26,79,68,22,29.95,29.83,8,3,8,0.00
2013-7-25,86,73,59,74,63,31,91,71,34,30.09,29.98,8,2,8,0.00
2013-7-26,89,75,59,77,65,31,96,72,34,30.09,29.98,8,2,8,0.00
2013-7-28,80,65,51,29,22,14,36,21,13,30.12,29.98,5,1,8,0.00
2013-7-29,85,69,54,36,28,19,43,24,13,30.24,30.12,6,1,7,0.00
2013-7-30,81,70,62,45,34,24,46,29,14,30.24,30.06,3,0,6,0.04
2013-7-31,77,69,65,61,42,32,84,40,21,30.09,29.95,2,0,5,0.08
2013-8-1,88,73,60,64,36,19,88,33,13,30.06,29.98,5,1,8,0.08
2013-8-2,87,74,60,42,30,23,49,22,13,30.09,29.98,5,1,7,0.08
2013-8-3,84,76,67,70,45,27,84,42,13,30.06,29.98,9,2,9,0.08
2013-8-4,85,73,63,73,61,19,80,68,13,30.15,30.06,9,3,9,0.00
2013-8-5,89,76,59,77,65,23,89,69,25,30.12,29.92,7,2,7,0.00
2013-8-6,87,78,68,75,67,32,92,72,26,29.98,29.92,7,1,7,0.00
2013-8-7,88,79,72,77,71,65,96,77,68,29.98,29.89,14,3,14,0.00
2013-8-8,88,77,73,76,71,34,97,84,16,30.00,29.89,10,3,11,0.04
2013-8-9,87,75,71,74,62,28,97,71,13,30.06,29.92,10,2,10,0.54
2013-8-10,89,78,70,77,70,43,97,77,31,30.12,30.03,6,1,6,0.13
2013-8-11,91,81,70,79,70,47,97,69,43,30.12,30.03,8,2,8,0.00
2013-8-12,87,74,68,76,64,26,97,76,13,30.09,29.92,21,3,21,0.45
2013-8-13,84,72,67,72,53,23,97,63,13,30.03,29.89,8,2,8,0.04
2013-8-14,81,67,52,70,57,21,91,71,27,30.15,30.03,8,2,8,0.00
2013-8-15,84,69,52,72,59,26,92,71,36,30.12,30.03,10,2,10,0.00
2013-8-16,88,74,57,76,63,27,89,70,31,30.15,30.06,7,2,7,0.00
2013-8-17,89,75,64,77,64,20,79,69,18,30.18,30.09,8,2,8,0.00
2013-8-18,90,74,61,77,65,34,96,76,34,30.18,30.09,6,1,6,0.00
2013-8-19,93,78,63,80,65,44,97,66,48,30.15,30.03,6,1,6,0.00
2013-8-20,94,78,66,81,67,42,97,69,40,30.15,30.06,8,1,8,0.00
2013-8-21,93,80,66,80,69,46,96,69,46,30.18,30.06,7,2,7,0.00
2013-8-22,93,83,70,80,70,33,95,68,12,30.15,30.03,8,2,8,0.00
2013-8-23,94,81,68,81,69,40,97,67,35,30.12,30.03,6,2,6,0.00
2013-8-24,94,81,66,81,71,33,98,72,12,30.24,30.15,7,2,7,0.00
2013-8-25,94,79,62,81,68,25,87,70,23,30.33,30.21,9,2,9,0.00
2013-8-26,91,75,65,77,56,27,97,59,12,30.27,30.12,8,2,8,0.00
2013-8-27,93,80,68,80,68,43,99,69,34,30.12,29.98,10,4,10,0.00
2013-8-28,94,82,70,81,72,56,96,73,58,30.03,29.95,12,4,12,0.00
2013-8-29,98,84,70,85,74,66,89,72,66,30.00,29.92,8,2,8,0.00
2013-8-30,99,84,70,85,74,63,97,73,66,30.00,29.86,9,2,9,0.00
2013-8-31,94,82,68,81,72,42,97,74,34,29.92,29.80,12,1,12,0.59
2013-9-1,86,74,68,75,68,63,92,80,68,29.89,29.77,10,2,10,1.26
2013-9-2,91,78,69,78,70,57,97,77,65,29.92,29.83,10,3,10,0.00
2013-9-3,87,74,62,76,64,38,96,72,38,30.06,29.92,10,2,10,0.00
2013-9-4,88,79,57,76,68,29,91,70,32,30.15,30.03,6,1,6,0.00
2013-9-5,92,77,59,79,64,36,97,66,40,30.21,30.12,6,1,6,0.00
2013-9-6,94,78,63,81,68,37,98,73,37,30.18,30.09,7,2,7,0.00
2013-9-7,93,79,64,80,70,62,97,75,67,30.12,29.98,8,2,8,0.00
2013-9-8,97,80,68,84,70,61,97,73,66,30.03,29.92,7,1,7,0.00
2013-9-9,96,83,69,82,72,42,98,72,38,30.06,29.98,10,3,10,0.00
2013-9-10,94,82,70,81,73,65,97,75,66,30.18,30.06,10,4,10,0.00
2013-9-11,96,80,69,83,71,65,96,75,66,30.21,30.06,15,3,15,0.00
2013-9-12,91,76,66,79,66,53,97,72,63,30.06,29.92,11,3,11,0.00
2013-9-13,78,65,52,66,55,24,93,71,24,30.06,29.95,12,4,12,0.00
2013-9-14,79,64,47,67,54,18,93,71,31,30.12,30.03,9,2,9,0.00
2013-9-15,83,70,50,72,60,44,91,73,68,30.12,30.03,14,4,14,0.00
2013-9-16,74,67,63,64,59,26,90,76,24,30.24,30.09,5,1,5,0.04
2013-9-17,84,69,55,72,60,50,85,73,67,30.27,30.15,8,2,8,0.00
2013-9-18,81,71,62,70,62,27,90,75,26,30.21,30.09,9,3,9,0.00
2013-9-19,88,76,64,76,65,47,97,69,52,30.18,30.03,11,3,11,0.00
2013-9-20,88,75,66,76,67,40,97,78,39,30.03,29.86,15,4,15,0.50
2013-9-21,78,66,58,66,56,39,97,72,44,29.92,29.77,14,4,14,1.38
2013-9-22,76,63,48,65,53,22,97,73,32,30.00,29.92,8,2,8,0.00
2013-9-23,80,65,49,69,55,23,94,72,36,30.09,29.98,7,2,7,0.00
2013-9-24,87,70,53,75,60,24,93,73,31,30.03,29.89,6,2,6,0.00
2013-9-25,89,73,62,77,64,36,98,76,37,29.92,29.86,7,1,7,0.00
2013-9-26,84,72,60,73,63,53,91,74,68,30.09,29.92,8,2,8,0.00
2013-9-27,87,72,56,75,59,33,97,66,41,30.15,30.06,6,2,6,0.00
2013-9-28,84,70,57,72,61,26,93,73,30,30.18,30.06,10,3,10,0.00
2013-9-29,69,63,55,61,55,30,100,78,38,30.12,30.00,15,3,15,0.08
2013-9-30,79,69,61,68,62,57,97,79,68,30.06,29.98,13,3,13,0.00
2013-10-1,84,71,58,72,61,39,95,71,49,30.15,30.03,12,3,12,0.00
2013-10-2,79,71,64,70,62,43,97,75,46,30.15,30.09,10,2,10,0.00
2013-10-3,88,73,67,77,68,61,97,84,68,30.12,30.03,13,2,13,0.00
2013-10-4,87,76,64,75,67,58,97,74,68,30.12,30.03,12,3,12,0.00
2013-10-5,78,74,69,73,69,66,97,85,70,30.09,29.95,5,2,8,1.30
2013-10-6,70,62,54,70,60,51,97,94,80,29.95,29.80,13,4,13,1.58
2013-10-10,81,66,53,70,58,47,97,77,68,30.21,30.09,3,1,5,0.00
2013-10-11,85,70,53,73,60,46,90,73,67,30.12,30.03,6,1,6,0.00
2013-10-12,86,70,52,73,61,50,97,76,67,30.15,30.03,6,2,6,0.00
2013-10-15,68,68,68,60,60,60,75,75,75,30.06,30.06,0,0,2,0.00
2013-10-18,65,57,50,51,44,30,100,65,40,29.70,29.46,13,5,13,0.00
2013-10-19,54,52,49,42,40,39,70,65,64,29.73,29.58,13,5,13,0.00
2013-10-20,57,53,46,44,42,37,87,68,63,29.91,29.70,8,3,12,0.00
2013-10-21,78,56,44,64,28,8,100,40,17,30.05,29.91,6,2,8,0.00
2013-10-22,84,57,36,68,33,8,88,44,16,30.08,29.98,6,1,10,0.00
2013-10-23,83,66,55,68,34,14,65,36,16,30.08,29.93,9,2,12,0.00
2013-10-24,84,69,56,68,43,12,65,44,15,30.08,29.99,9,2,13,0.00
2013-10-27,47,46,44,7,6,6,20,19,19,30.02,29.96,5,2,5,0.00
2013-10-28,56,47,38,43,28,4,70,53,19,30.02,29.93,9,3,14,0.00
2013-10-29,56,45,35,44,25,0,67,49,21,30.02,29.79,9,4,17,0.00
2013-10-31,64,62,62,61,57,54,97,83,73,29.86,29.47,18,9,18,1.13
2013-11-1,66,63,52,61,54,43,96,74,70,29.77,29.68,11,7,13,0.04
2013-11-2,56,52,42,48,43,11,95,74,18,30.09,29.89,11,3,13,0.00